createdAt,value
2018-04-16T00:01:28.228Z,15.67
2018-04-16T00:03:55.824Z,16.27
2018-04-16T00:06:23.329Z,15.23
2018-04-16T00:08:50.888Z,16.47
2018-04-16T00:11:18.510Z,15.33
2018-04-16T00:13:46.007Z,17.90
2018-04-16T00:16:13.567Z,15.73
2018-04-16T00:18:41.150Z,16.03
2018-04-16T00:21:08.689Z,16.40
2018-04-16T00:23:36.242Z,15.67
2018-04-16T00:26:03.787Z,16.60
2018-04-16T00:28:31.324Z,16.33
2018-04-16T00:30:58.998Z,15.93
2018-04-16T00:33:32.794Z,15.90
2018-04-16T00:36:05.936Z,16.83
2018-04-16T00:38:39.000Z,15.13
2018-04-16T00:41:11.997Z,15.73
2018-04-16T00:43:44.974Z,15.23
2018-04-16T00:46:18.046Z,15.50
2018-04-16T00:48:51.109Z,17.70
2018-04-16T00:51:24.149Z,17.90
2018-04-16T00:54:08.875Z,16.70
2018-04-16T00:56:41.839Z,19.53
2018-04-16T00:59:14.975Z,18.10
2018-04-16T01:01:48.020Z,17.33
2018-04-16T01:04:20.983Z,19.47
2018-04-16T01:06:54.015Z,18.73
2018-04-16T01:09:27.084Z,18.27
2018-04-16T01:12:00.110Z,18.00
2018-04-16T01:14:33.455Z,18.40
2018-04-16T01:17:07.507Z,17.23
2018-04-16T01:19:40.475Z,17.47
2018-04-16T01:22:13.503Z,16.80
2018-04-16T01:24:46.523Z,16.40
2018-04-16T01:27:19.499Z,17.90
2018-04-16T01:29:52.416Z,18.20
2018-04-16T01:32:26.294Z,19.50
2018-04-16T01:34:59.420Z,18.60
2018-04-16T01:37:32.805Z,16.90
2018-04-16T01:40:05.757Z,16.33
2018-04-16T01:42:38.716Z,17.43
2018-04-16T01:45:11.796Z,17.90
2018-04-16T01:47:44.690Z,17.87
2018-04-16T01:50:17.680Z,17.57
2018-04-16T01:52:50.713Z,17.33
2018-04-16T01:55:23.756Z,18.10
2018-04-16T01:57:56.810Z,17.30
2018-04-16T02:00:29.778Z,16.83
2018-04-16T02:03:02.940Z,17.23
2018-04-16T02:05:35.929Z,16.17
2018-04-16T02:08:08.867Z,18.37
2018-04-16T02:10:41.814Z,16.87
2018-04-16T02:13:14.813Z,17.20
2018-04-16T02:18:53.958Z,16.90
2018-04-16T02:21:27.025Z,17.43
2018-04-16T02:24:00.027Z,18.40
2018-04-16T02:26:33.083Z,17.57
2018-04-16T02:29:06.071Z,16.57
2018-04-16T02:31:39.208Z,17.00
2018-04-16T02:37:20.565Z,18.67
2018-04-16T02:39:53.694Z,17.70
2018-04-16T02:42:26.739Z,20.20
2018-04-16T02:44:59.730Z,19.87
2018-04-16T02:47:32.703Z,18.70
2018-04-16T02:50:05.640Z,20.77
2018-04-16T02:52:38.763Z,19.70
2018-04-16T02:55:11.785Z,20.13
2018-04-16T02:57:44.797Z,21.73
2018-04-16T03:00:17.783Z,20.47
2018-04-16T03:02:50.927Z,20.87
2018-04-16T03:05:24.002Z,22.23
2018-04-16T03:07:57.055Z,21.17
2018-04-16T03:10:30.016Z,23.20
2018-04-16T03:13:03.034Z,21.57
2018-04-16T03:15:36.123Z,20.20
2018-04-16T03:18:09.186Z,24.00
2018-04-16T03:20:42.511Z,23.07
2018-04-16T03:23:15.467Z,23.30
2018-04-16T03:25:49.271Z,24.07
2018-04-16T03:28:22.232Z,24.50
2018-04-16T03:30:55.179Z,24.33
2018-04-16T03:33:28.124Z,23.30
2018-04-16T03:36:01.154Z,24.87
2018-04-16T03:38:34.490Z,24.43
2018-04-16T03:41:07.499Z,23.80
2018-04-16T03:43:40.465Z,24.53
2018-04-16T03:46:13.443Z,25.13
2018-04-16T03:48:46.399Z,25.13
2018-04-16T03:51:14.774Z,23.93
2018-04-16T03:53:52.946Z,24.17
2018-04-16T03:56:20.427Z,24.30
2018-04-16T03:58:48.008Z,24.10
2018-04-16T04:01:15.616Z,23.83
2018-04-16T04:03:43.057Z,25.97
2018-04-16T04:06:10.700Z,25.83
2018-04-16T04:08:38.176Z,26.67
2018-04-16T04:11:05.644Z,25.70
2018-04-16T04:13:33.188Z,26.97
2018-04-16T04:16:00.706Z,26.53
2018-04-16T04:18:28.248Z,26.90
2018-04-16T04:20:55.744Z,26.87
2018-04-16T04:26:35.594Z,26.13
2018-04-16T04:29:14.760Z,26.30
2018-04-16T04:31:42.234Z,26.87
2018-04-16T04:34:09.740Z,26.43
2018-04-16T04:36:37.250Z,25.93
2018-04-16T04:39:04.770Z,26.87
2018-04-16T04:41:32.253Z,28.90
2018-04-16T04:43:59.740Z,27.77
2018-04-16T04:46:27.212Z,26.40
2018-04-16T04:48:54.807Z,25.80
2018-04-16T04:51:22.286Z,25.33
2018-04-16T04:53:49.764Z,25.80
2018-04-16T04:56:17.243Z,25.50
2018-04-16T04:58:44.701Z,25.20
2018-04-16T05:01:12.194Z,23.73
2018-04-16T05:03:39.716Z,25.50
2018-04-16T05:06:07.206Z,27.43
2018-04-16T05:08:34.743Z,27.07
2018-04-16T05:11:02.275Z,25.77
2018-04-16T05:13:29.867Z,26.07
2018-04-16T05:15:57.339Z,25.80
2018-04-16T05:18:24.827Z,26.07
2018-04-16T05:20:52.355Z,24.50
2018-04-16T05:23:19.839Z,24.50
2018-04-16T05:25:47.362Z,26.83
2018-04-16T05:28:14.850Z,23.70
2018-04-16T05:30:42.375Z,23.20
2018-04-16T05:33:09.891Z,23.33
2018-04-16T05:35:37.390Z,22.37
2018-04-16T05:38:04.946Z,23.77
2018-04-16T05:40:32.472Z,22.30
2018-04-16T05:42:59.958Z,22.70
2018-04-16T05:45:27.450Z,24.00
2018-04-16T05:47:54.953Z,23.33
2018-04-16T05:50:22.486Z,24.37
2018-04-16T05:52:50.028Z,23.23
2018-04-16T05:55:17.483Z,23.07
2018-04-16T05:57:44.974Z,23.53
2018-04-16T06:00:12.461Z,20.53
2018-04-16T06:02:39.943Z,22.30
2018-04-16T06:05:07.430Z,25.10
2018-04-16T06:07:34.958Z,22.53
2018-04-16T06:10:02.441Z,22.83
2018-04-16T06:12:29.979Z,22.23
2018-04-16T06:14:57.458Z,22.27
2018-04-16T06:17:24.921Z,21.30
2018-04-16T06:19:52.492Z,22.17
2018-04-16T06:22:20.052Z,22.70
2018-04-16T06:24:47.563Z,21.90
2018-04-16T06:27:15.067Z,21.87
2018-04-16T06:29:42.581Z,19.30
2018-04-16T06:32:10.119Z,19.60
2018-04-16T06:34:37.628Z,21.03
2018-04-16T06:37:05.123Z,19.53
2018-04-16T06:39:32.621Z,17.50
2018-04-16T06:42:00.168Z,21.10
2018-04-16T06:44:27.885Z,19.70
2018-04-16T06:46:55.811Z,18.20
2018-04-16T06:49:23.283Z,20.87
2018-04-16T06:51:50.812Z,18.27
2018-04-16T06:54:18.455Z,17.37
2018-04-16T06:56:46.020Z,18.77
2018-04-16T06:59:13.524Z,19.20
2018-04-16T07:01:41.031Z,20.37
2018-04-16T07:04:08.568Z,19.43
2018-04-16T07:06:36.070Z,18.37
2018-04-16T07:09:03.572Z,18.73
2018-04-16T07:11:31.099Z,19.10
2018-04-16T07:13:59.284Z,19.20
2018-04-16T07:16:26.812Z,18.60
2018-04-16T07:18:54.317Z,18.53
2018-04-16T07:21:21.832Z,18.33
2018-04-16T07:23:49.483Z,18.30
2018-04-16T07:26:18.552Z,19.67
2018-04-16T07:28:46.067Z,18.93
2018-04-16T07:31:13.555Z,18.97
2018-04-16T07:36:13.329Z,18.60
2018-04-16T07:38:43.074Z,19.90
2018-04-16T07:41:10.654Z,18.70
2018-04-16T07:43:38.269Z,19.00
2018-04-16T07:46:05.775Z,18.77
2018-04-16T07:48:33.258Z,18.23
2018-04-16T07:51:00.777Z,18.17
2018-04-16T07:53:28.342Z,17.80
2018-04-16T07:55:55.855Z,19.20
2018-04-16T07:58:23.430Z,19.00
2018-04-16T08:00:50.921Z,18.03
2018-04-16T08:03:18.402Z,20.00
2018-04-16T08:05:45.879Z,19.03
2018-04-16T08:08:13.394Z,20.07
2018-04-16T08:10:41.015Z,18.97
2018-04-16T08:13:08.547Z,19.47
2018-04-16T08:15:36.161Z,19.73
2018-04-16T08:18:03.662Z,17.57
2018-04-16T08:20:31.180Z,18.53
2018-04-16T08:22:58.729Z,17.60
2018-04-16T08:25:26.226Z,18.87
2018-04-16T08:27:53.743Z,17.97
2018-04-16T08:30:21.251Z,19.10
2018-04-16T08:32:48.914Z,19.10
2018-04-16T08:35:16.408Z,19.90
2018-04-16T08:37:43.988Z,19.93
2018-04-16T08:42:45.368Z,19.67
2018-04-16T08:45:12.863Z,19.73
2018-04-16T08:47:40.343Z,20.07
2018-04-16T08:50:07.870Z,19.00
2018-04-16T08:52:35.369Z,20.80
2018-04-16T08:55:03.178Z,20.00
2018-04-16T08:57:30.961Z,19.30
2018-04-16T08:59:59.475Z,18.90
2018-04-16T09:02:27.007Z,17.70
2018-04-16T09:04:54.494Z,18.80
2018-04-16T09:07:22.017Z,20.23
2018-04-16T09:09:49.482Z,17.47
2018-04-16T09:12:16.972Z,18.77
2018-04-16T09:14:44.554Z,17.70
2018-04-16T09:17:12.105Z,17.63
2018-04-16T09:19:40.762Z,16.43
2018-04-16T09:22:15.352Z,18.53
2018-04-16T09:24:42.908Z,18.17
2018-04-16T09:27:10.416Z,18.97
2018-04-16T09:29:37.987Z,18.70
2018-04-16T09:32:05.562Z,19.07
2018-04-16T09:34:33.095Z,19.50
2018-04-16T09:37:00.655Z,19.63
2018-04-16T09:39:28.193Z,20.23
2018-04-16T09:41:55.688Z,19.47
2018-04-16T09:44:23.280Z,19.93
2018-04-16T09:46:50.810Z,20.53
2018-04-16T09:49:18.355Z,20.20
2018-04-16T09:51:45.855Z,20.67
2018-04-16T09:54:13.444Z,20.20
2018-04-16T09:56:41.240Z,19.70
2018-04-16T09:59:08.738Z,19.90
2018-04-16T10:01:38.404Z,21.43
2018-04-16T10:04:06.320Z,21.73
2018-04-16T10:06:33.915Z,22.70
2018-04-16T10:09:01.486Z,23.93
2018-04-16T10:11:29.006Z,25.57
2018-04-16T10:13:56.495Z,24.83
2018-04-16T10:16:23.998Z,25.17
2018-04-16T10:18:51.664Z,24.03
2018-04-16T10:21:19.185Z,25.23
2018-04-16T10:23:46.804Z,24.70
2018-04-16T10:26:14.324Z,23.93
2018-04-16T10:28:42.057Z,24.57
2018-04-16T10:31:09.514Z,22.80
2018-04-16T10:33:37.044Z,21.27
2018-04-16T10:36:04.571Z,21.43
2018-04-16T10:38:32.083Z,18.80
2018-04-16T10:40:59.620Z,18.90
2018-04-16T10:43:27.419Z,17.33
2018-04-16T10:45:54.943Z,17.60
2018-04-16T10:48:22.437Z,15.60
2018-04-16T10:50:49.936Z,15.43
2018-04-16T10:53:17.423Z,14.90
2018-04-16T10:55:49.671Z,15.23
2018-04-16T10:58:17.217Z,15.50
2018-04-16T11:00:44.707Z,14.73
2018-04-16T11:03:12.204Z,15.30
2018-04-16T11:05:39.976Z,14.87
2018-04-16T11:08:07.477Z,15.13
2018-04-16T11:10:34.983Z,14.53
2018-04-16T11:13:02.617Z,15.30
2018-04-16T11:15:30.067Z,15.03
2018-04-16T11:17:57.605Z,13.77
2018-04-16T11:20:25.136Z,14.73
2018-04-16T11:22:52.700Z,15.23
2018-04-16T11:25:20.176Z,14.13
2018-04-16T11:27:51.509Z,13.77
2018-04-16T11:30:21.597Z,15.37
2018-04-16T11:32:49.095Z,14.67
2018-04-16T11:35:16.561Z,14.77
2018-04-16T11:37:44.225Z,13.80
2018-04-16T11:40:11.792Z,13.57
2018-04-16T11:42:39.335Z,13.30
2018-04-16T11:45:13.635Z,13.40
2018-04-16T11:47:42.389Z,14.40
2018-04-16T11:50:09.879Z,13.77
2018-04-16T11:52:37.389Z,12.47
2018-04-16T11:55:04.873Z,12.63
2018-04-16T12:00:04.539Z,12.37
2018-04-16T12:02:32.017Z,11.10
2018-04-16T12:04:59.528Z,10.73
2018-04-16T12:07:29.579Z,10.00
2018-04-16T12:09:57.169Z,10.03
2018-04-16T12:12:24.771Z,11.73
2018-04-16T12:14:52.304Z,10.40
2018-04-16T12:17:19.805Z,10.53
2018-04-16T12:19:47.288Z,10.73
2018-04-16T12:22:14.793Z,10.63
2018-04-16T12:24:42.921Z,10.10
2018-04-16T12:27:10.449Z,10.30
2018-04-16T12:29:38.011Z,11.10
2018-04-16T12:32:05.584Z,10.17
2018-04-16T12:34:33.078Z,10.57
2018-04-16T12:37:00.691Z,11.20
2018-04-16T12:39:28.242Z,12.10
2018-04-16T12:41:55.770Z,10.30
2018-04-16T12:44:23.274Z,11.57
2018-04-16T12:46:51.650Z,11.77
2018-04-16T12:49:19.156Z,11.20
2018-04-16T12:51:50.672Z,10.90
2018-04-16T12:54:18.184Z,10.80
2018-04-16T12:56:45.710Z,10.47
2018-04-16T12:59:13.207Z,10.30
2018-04-16T13:01:40.794Z,10.53
2018-04-16T13:04:08.379Z,11.37
2018-04-16T13:06:35.913Z,10.47
2018-04-16T13:09:03.452Z,10.27
2018-04-16T13:11:31.008Z,10.47
2018-04-16T13:13:58.533Z,9.60
2018-04-16T13:16:26.058Z,9.23
2018-04-16T13:18:53.596Z,8.70
2018-04-16T13:21:21.105Z,8.77
2018-04-16T13:23:48.604Z,7.93
2018-04-16T13:26:18.383Z,8.07
2018-04-16T13:28:45.947Z,6.83
2018-04-16T13:31:13.515Z,7.40
2018-04-16T13:33:41.046Z,8.30
2018-04-16T13:36:08.563Z,6.90
2018-04-16T13:38:36.131Z,8.17
2018-04-16T13:41:03.665Z,6.67
2018-04-16T13:43:31.182Z,7.20
2018-04-16T13:45:58.862Z,6.90
2018-04-16T13:48:26.365Z,6.80
2018-04-16T13:50:54.633Z,7.97
2018-04-16T13:53:22.244Z,6.80
2018-04-16T13:55:49.801Z,7.93
2018-04-16T13:58:18.103Z,7.77
2018-04-16T14:00:45.655Z,6.47
2018-04-16T14:03:13.194Z,6.50
2018-04-16T14:05:40.707Z,7.70
2018-04-16T14:08:08.210Z,7.33
2018-04-16T14:10:35.714Z,7.27
2018-04-16T14:13:03.202Z,7.53
2018-04-16T14:15:30.706Z,7.40
2018-04-16T14:17:58.253Z,7.43
2018-04-16T14:20:25.755Z,7.80
2018-04-16T14:22:53.299Z,7.47
2018-04-16T14:25:20.787Z,6.97
2018-04-16T14:27:48.266Z,6.40
2018-04-16T14:30:15.778Z,7.40
2018-04-16T14:32:43.254Z,7.27
2018-04-16T14:35:10.738Z,7.60
2018-04-16T14:37:38.230Z,7.20
2018-04-16T14:40:05.730Z,6.33
2018-04-16T14:42:33.206Z,7.10
2018-04-16T14:45:00.747Z,6.87
2018-04-16T14:47:28.826Z,6.33
2018-04-16T14:49:56.294Z,7.00
2018-04-16T14:52:23.798Z,7.47
2018-04-16T14:54:51.308Z,6.50
2018-04-16T14:57:18.794Z,6.80
2018-04-16T14:59:46.293Z,6.80
2018-04-16T15:02:13.777Z,6.83
2018-04-16T15:04:41.282Z,6.20
2018-04-16T15:07:08.837Z,7.57
2018-04-16T15:09:36.327Z,6.20
2018-04-16T15:12:03.808Z,6.60
2018-04-16T15:14:31.313Z,6.77
2018-04-16T15:16:58.800Z,5.77
2018-04-16T15:19:26.368Z,6.23
2018-04-16T15:21:53.854Z,6.23
2018-04-16T15:24:21.323Z,6.20
2018-04-16T15:26:48.908Z,5.63
2018-04-16T15:29:16.391Z,5.70
2018-04-16T15:31:43.862Z,6.13
2018-04-16T15:34:11.357Z,5.93
2018-04-16T15:36:38.911Z,5.80
2018-04-16T15:39:06.495Z,5.77
2018-04-16T15:41:33.961Z,6.50
2018-04-16T15:44:01.450Z,6.60
2018-04-16T15:46:28.986Z,6.40
2018-04-16T15:48:56.492Z,5.13
2018-04-16T15:51:24.055Z,6.00
2018-04-16T15:53:51.591Z,5.97
2018-04-16T15:56:19.051Z,6.07
2018-04-16T15:58:46.621Z,5.47
2018-04-16T16:01:14.183Z,6.27
2018-04-16T16:03:41.654Z,6.53
2018-04-16T16:06:09.588Z,6.27
2018-04-16T16:08:37.140Z,5.57
2018-04-16T16:11:04.650Z,5.83
2018-04-16T16:16:05.861Z,6.60
2018-04-16T16:18:33.371Z,6.63
2018-04-16T16:21:00.878Z,7.00
2018-04-16T16:23:28.988Z,7.60
2018-04-16T16:25:56.502Z,6.90
2018-04-16T16:28:24.030Z,6.50
2018-04-16T16:30:51.525Z,6.03
2018-04-16T16:33:19.032Z,7.47
2018-04-16T16:35:46.573Z,6.47
2018-04-16T16:38:14.068Z,5.83
2018-04-16T16:40:41.568Z,6.57
2018-04-16T16:43:09.174Z,6.67
2018-04-16T16:45:36.666Z,7.70
2018-04-16T16:48:04.179Z,6.60
2018-04-16T16:50:31.646Z,8.77
2018-04-16T16:52:59.173Z,7.30
2018-04-16T16:55:26.651Z,7.50
2018-04-16T16:57:54.146Z,6.53
2018-04-16T17:00:21.658Z,6.97
2018-04-16T17:02:49.135Z,7.93
2018-04-16T17:05:16.679Z,6.57
2018-04-16T17:07:44.172Z,6.10
2018-04-16T17:10:11.715Z,6.07
2018-04-16T17:12:39.217Z,5.80
2018-04-16T17:15:06.729Z,6.77
2018-04-16T17:17:34.209Z,5.90
2018-04-16T17:20:01.778Z,5.50
2018-04-16T17:22:29.207Z,5.03
2018-04-16T17:24:56.680Z,6.20
2018-04-16T17:27:24.183Z,4.93
2018-04-16T17:29:51.650Z,5.00
2018-04-16T17:32:19.135Z,5.43
2018-04-16T17:34:46.589Z,5.27
2018-04-16T17:37:14.041Z,4.60
2018-04-16T17:39:41.522Z,4.70
2018-04-16T17:42:09.011Z,4.90
2018-04-16T17:44:36.502Z,4.57
2018-04-16T17:47:03.981Z,4.60
2018-04-16T17:49:31.439Z,4.60
2018-04-16T17:51:59.199Z,4.63
2018-04-16T17:54:26.701Z,4.57
2018-04-16T17:56:54.163Z,4.63
2018-04-16T17:59:21.626Z,4.80
2018-04-16T18:01:49.109Z,4.83
2018-04-16T18:04:16.576Z,5.70
2018-04-16T18:06:44.056Z,5.67
2018-04-16T18:09:11.541Z,5.47
2018-04-16T18:11:39.042Z,5.60
2018-04-16T18:14:06.542Z,4.77
2018-04-16T18:16:34.010Z,5.10
2018-04-16T18:19:01.548Z,5.77
2018-04-16T18:21:29.087Z,5.70
2018-04-16T18:23:56.562Z,5.30
2018-04-16T18:26:24.017Z,5.30
2018-04-16T18:28:51.490Z,5.33
2018-04-16T18:31:18.974Z,5.50
2018-04-16T18:33:46.438Z,5.13
2018-04-16T18:36:13.931Z,4.80
2018-04-16T18:38:41.404Z,4.80
2018-04-16T18:41:08.862Z,5.00
2018-04-16T18:43:36.347Z,4.60
2018-04-16T18:46:04.123Z,4.30
2018-04-16T18:48:31.600Z,3.70
2018-04-16T18:51:00.117Z,4.23
2018-04-16T18:53:27.604Z,3.80
2018-04-16T18:55:55.226Z,3.97
2018-04-16T18:58:22.722Z,3.80
2018-04-16T19:00:50.367Z,3.70
2018-04-16T19:03:17.831Z,3.60
2018-04-16T19:05:45.311Z,3.47
2018-04-16T19:08:12.782Z,3.93
2018-04-16T19:10:40.278Z,3.43
2018-04-16T19:13:07.778Z,4.47
2018-04-16T19:15:35.259Z,4.13
2018-04-16T19:18:02.726Z,4.40
2018-04-16T19:20:35.696Z,3.57
2018-04-16T19:23:04.736Z,4.93
2018-04-16T19:25:33.193Z,4.87
2018-04-16T19:28:06.373Z,5.20
2018-04-16T19:30:34.094Z,4.57
2018-04-16T19:33:07.222Z,4.83
2018-04-16T19:35:35.478Z,4.30
2018-04-16T19:38:02.949Z,5.60
2018-04-16T19:40:30.499Z,5.33
2018-04-16T19:42:58.041Z,5.43
2018-04-16T19:45:25.518Z,5.80
2018-04-16T19:47:54.275Z,6.60
2018-04-16T19:50:21.759Z,6.47
2018-04-16T19:52:49.290Z,6.20
2018-04-16T19:55:16.791Z,6.53
2018-04-16T19:57:49.696Z,7.03
2018-04-16T20:00:17.207Z,8.33
2018-04-16T20:02:50.344Z,7.73
2018-04-16T20:05:17.887Z,7.00
2018-04-16T20:07:46.032Z,8.97
2018-04-16T20:10:13.764Z,7.70
2018-04-16T20:12:41.535Z,9.90
2018-04-16T20:15:09.060Z,9.37
2018-04-16T20:17:36.779Z,9.40
2018-04-16T20:20:05.343Z,10.20
2018-04-16T20:22:32.908Z,9.70
2018-04-16T20:25:00.471Z,10.03
2018-04-16T20:27:28.918Z,10.70
2018-04-16T20:29:57.075Z,10.80
2018-04-16T20:32:24.572Z,11.17
2018-04-16T20:34:52.084Z,11.37
2018-04-16T20:37:19.610Z,11.27
2018-04-16T20:39:47.123Z,11.30
2018-04-16T20:42:14.602Z,12.30
2018-04-16T20:44:42.149Z,11.73
2018-04-16T20:47:09.658Z,12.70
2018-04-16T20:49:37.139Z,12.20
2018-04-16T20:52:04.829Z,11.73
2018-04-16T20:54:33.637Z,12.30
2018-04-16T20:57:01.127Z,12.20
2018-04-16T20:59:28.880Z,13.70
2018-04-16T21:01:56.337Z,13.70
2018-04-16T21:04:23.961Z,12.43
2018-04-16T21:06:51.499Z,13.30
2018-04-16T21:11:51.777Z,12.93
2018-04-16T21:14:20.570Z,14.00
2018-04-16T21:16:48.195Z,13.00
2018-04-16T21:19:16.938Z,12.67
2018-04-16T21:21:44.458Z,12.67
2018-04-16T21:24:12.007Z,12.37
2018-04-16T21:26:39.815Z,13.90
2018-04-16T21:29:07.327Z,14.00
2018-04-16T21:31:35.631Z,12.70
2018-04-16T21:34:03.132Z,12.43
2018-04-16T21:36:30.607Z,13.73
2018-04-16T21:39:00.958Z,12.80
2018-04-16T21:41:41.782Z,12.87
2018-04-16T21:46:43.286Z,13.27
2018-04-16T21:49:12.156Z,13.73
2018-04-16T21:51:40.334Z,13.70
2018-04-16T21:54:07.895Z,13.43
2018-04-16T21:59:12.588Z,13.70
2018-04-16T22:01:40.163Z,13.07
2018-04-16T22:04:08.252Z,12.67
2018-04-16T22:06:39.608Z,13.10
2018-04-16T22:11:40.110Z,13.53
2018-04-16T22:14:08.770Z,12.30
2018-04-16T22:16:36.314Z,11.60
2018-04-16T22:19:03.838Z,11.00
2018-04-16T22:21:32.711Z,10.90
2018-04-16T22:24:00.227Z,10.20
2018-04-16T22:26:27.703Z,10.10
2018-04-16T22:28:55.216Z,8.80
2018-04-16T22:31:22.695Z,7.70
2018-04-16T22:33:50.183Z,8.43
2018-04-16T22:36:17.685Z,7.77
2018-04-16T22:38:46.399Z,8.43
2018-04-16T22:41:13.848Z,7.63
2018-04-16T22:43:41.315Z,7.43
2018-04-16T22:46:08.838Z,7.30
2018-04-16T22:48:36.497Z,7.37
2018-04-16T22:51:03.993Z,7.00
2018-04-16T22:53:32.486Z,7.43
2018-04-16T22:56:00.236Z,7.73
2018-04-16T22:58:27.757Z,8.03
2018-04-16T23:00:55.267Z,7.90
2018-04-16T23:03:22.786Z,7.33
2018-04-16T23:05:50.325Z,7.30
2018-04-16T23:08:17.838Z,7.60
2018-04-16T23:10:45.361Z,7.57
2018-04-16T23:13:12.857Z,7.00
2018-04-16T23:15:40.370Z,7.50
2018-04-16T23:18:07.908Z,6.50
2018-04-16T23:20:35.486Z,6.03
2018-04-16T23:23:03.010Z,6.53
2018-04-16T23:25:30.599Z,6.80
2018-04-16T23:27:58.119Z,5.97
2018-04-16T23:30:25.627Z,5.87
2018-04-16T23:32:53.093Z,6.83
2018-04-16T23:35:20.595Z,6.93
2018-04-16T23:37:48.054Z,5.23
2018-04-16T23:40:16.892Z,5.27
2018-04-16T23:42:44.380Z,5.60
2018-04-16T23:45:11.836Z,5.30
2018-04-16T23:47:39.322Z,5.40
2018-04-16T23:50:06.837Z,4.50
2018-04-16T23:52:34.349Z,5.07
2018-04-16T23:55:01.828Z,5.13
2018-04-16T23:57:29.483Z,5.93
2018-04-16T23:59:57.666Z,4.70
